Time;durP1;ratioP1;P1;durP2;ratioP2;P2;SDS_P1;SDS_P2;PMS_P1;PMS_P2;Temp;Humidity;BMP_temperature;BMP_pressure;BME280_temperature;BME280_humidity;BME280_pressure;Samples;Min_cycle;Max_cycle;Signal;HPM_P1;HPM_P2
2023/11/25 00:00:22;;;;;;;14.35;2.80;;;6.00;88.50;;;;;;5040450;28;20516;-75
2023/11/25 00:02:49;;;;;;;17.58;3.22;;;5.90;88.90;;;;;;5042572;28;20029;-75
2023/11/25 00:05:15;;;;;;;12.38;3.25;;;5.80;89.10;;;;;;5036866;28;20080;-74
2023/11/25 00:07:41;;;;;;;20.00;4.07;;;5.80;89.40;;;;;;5035296;28;20033;-76
2023/11/25 00:10:07;;;;;;;16.10;3.50;;;5.70;89.60;;;;;;5041114;28;20422;-75
2023/11/25 00:12:34;;;;;;;16.25;4.43;;;5.80;89.80;;;;;;5035554;28;20037;-75
2023/11/25 00:15:00;;;;;;;15.55;3.95;;;5.80;89.80;;;;;;5036844;28;20045;-76
2023/11/25 00:17:28;;;;;;;17.50;3.60;;;5.80;89.90;;;;;;5041451;28;20467;-73
2023/11/25 00:19:56;;;;;;;14.30;3.63;;;5.80;89.90;;;;;;5041000;28;20045;-73
2023/11/25 00:22:21;;;;;;;16.83;3.25;;;5.90;89.90;;;;;;5039632;28;20040;-77
2023/11/25 00:24:50;;;;;;;13.65;3.20;;;5.90;89.80;;;;;;5042326;28;20033;-74
2023/11/25 00:27:17;;;;;;;13.95;3.55;;;5.90;89.80;;;;;;5040844;28;20029;-74
2023/11/25 00:29:42;;;;;;;22.35;3.28;;;5.80;90.00;;;;;;5034560;28;20566;-78
2023/11/25 00:32:08;;;;;;;13.50;3.30;;;5.70;90.30;;;;;;5032626;28;20124;-75
2023/11/25 00:34:34;;;;;;;16.85;4.55;;;5.70;90.50;;;;;;5039870;28;20082;-74
2023/11/25 00:37:00;;;;;;;12.68;2.97;;;5.60;90.70;;;;;;5033870;28;20032;-74
2023/11/25 00:39:27;;;;;;;15.88;2.75;;;5.50;90.90;;;;;;5039330;28;20106;-75
2023/11/25 00:41:53;;;;;;;11.35;2.90;;;5.50;91.20;;;;;;5030324;28;20033;-74
2023/11/25 00:44:19;;;;;;;14.80;3.15;;;5.50;91.30;;;;;;5032854;28;20120;-76
2023/11/25 00:46:45;;;;;;;17.42;3.40;;;5.60;91.50;;;;;;5040577;28;20689;-74
2023/11/25 00:49:12;;;;;;;16.13;3.70;;;5.60;91.60;;;;;;5037752;28;20054;-77
2023/11/25 00:51:38;;;;;;;18.67;3.97;;;5.60;91.60;;;;;;5042989;28;20109;-77
2023/11/25 00:54:05;;;;;;;13.25;2.88;;;5.60;91.50;;;;;;5040957;28;20816;-74
2023/11/25 00:56:31;;;;;;;14.60;3.30;;;5.60;91.50;;;;;;5039734;28;20090;-77
2023/11/25 00:58:57;;;;;;;17.05;3.78;;;5.70;91.80;;;;;;5043902;28;20579;-75
2023/11/25 01:01:23;;;;;;;14.07;3.95;;;5.80;91.40;;;;;;5036788;28;20042;-74
2023/11/25 01:03:48;;;;;;;19.13;3.55;;;5.80;91.30;;;;;;5041016;28;20428;-77
2023/11/25 01:06:14;;;;;;;16.25;3.30;;;5.70;91.30;;;;;;5037741;28;20042;-75
2023/11/25 01:08:40;;;;;;;16.27;4.13;;;5.60;91.30;;;;;;5033828;28;20079;-77
2023/11/25 01:11:06;;;;;;;17.67;3.33;;;5.60;91.50;;;;;;5037808;28;20457;-75
2023/11/25 01:13:32;;;;;;;14.82;3.15;;;5.50;91.70;;;;;;5051717;28;20120;-76
2023/11/25 01:16:00;;;;;;;15.55;3.60;;;5.30;91.90;;;;;;5055451;28;20091;-78
2023/11/25 01:18:26;;;;;;;15.30;3.33;;;5.30;92.10;;;;;;5057216;28;20099;-76
2023/11/25 01:20:55;;;;;;;13.68;3.60;;;5.10;92.30;;;;;;5045262;28;20040;-76
2023/11/25 01:23:22;;;;;;;10.80;3.42;;;5.10;92.40;;;;;;5038808;28;20524;-76
2023/11/25 01:25:48;;;;;;;11.13;2.80;;;5.00;92.60;;;;;;5037780;28;20046;-75
2023/11/25 01:28:14;;;;;;;10.85;3.42;;;4.90;92.70;;;;;;5039339;28;20469;-75
2023/11/25 01:30:40;;;;;;;16.70;4.90;;;4.90;92.90;;;;;;5033720;28;20037;-76
2023/11/25 01:33:09;;;;;;;13.88;3.78;;;4.90;93.10;;;;;;5038663;28;20481;-76
2023/11/25 01:35:38;;;;;;;13.70;3.35;;;4.90;93.20;;;;;;5049907;28;20048;-74
2023/11/25 01:38:04;;;;;;;14.25;3.65;;;4.80;93.20;;;;;;5037926;28;20086;-76
2023/11/25 01:40:29;;;;;;;13.68;3.53;;;4.90;93.30;;;;;;5036658;28;20060;-74
2023/11/25 01:42:59;;;;;;;14.18;3.05;;;4.90;93.40;;;;;;5038681;28;20029;-74
2023/11/25 01:45:26;;;;;;;17.20;3.42;;;4.80;93.60;;;;;;5037616;28;20108;-75
2023/11/25 01:47:54;;;;;;;18.02;3.00;;;4.80;93.70;;;;;;5036661;28;20405;-74
2023/11/25 01:50:21;;;;;;;12.93;3.50;;;4.70;93.70;;;;;;5036778;28;20042;-74
2023/11/25 01:52:49;;;;;;;13.32;2.88;;;4.70;93.80;;;;;;5035308;28;20378;-76
2023/11/25 01:55:16;;;;;;;12.18;2.63;;;4.70;93.90;;;;;;5041163;28;20051;-75
2023/11/25 01:57:43;;;;;;;14.20;3.53;;;4.60;94.00;;;;;;5048300;28;20532;-74
2023/11/25 02:00:13;;;;;;;13.43;3.40;;;4.60;94.10;;;;;;5037828;28;20041;-76
2023/11/25 02:02:40;;;;;;;16.77;3.50;;;4.60;94.20;;;;;;5043318;28;20033;-74
2023/11/25 02:05:07;;;;;;;20.17;3.65;;;4.60;94.40;;;;;;5040030;28;20049;-76
2023/11/25 02:07:34;;;;;;;15.38;3.53;;;4.60;94.40;;;;;;5043375;28;20025;-75
2023/11/25 02:10:00;;;;;;;13.60;3.38;;;4.70;94.40;;;;;;5042399;28;20051;-76
2023/11/25 02:12:26;;;;;;;21.42;3.70;;;4.70;94.40;;;;;;5040693;28;20115;-76
2023/11/25 02:14:51;;;;;;;19.70;3.30;;;4.80;94.30;;;;;;5049388;28;20454;-76
2023/11/25 02:17:17;;;;;;;14.20;3.30;;;4.90;94.40;;;;;;5050758;28;20374;-74
2023/11/25 02:19:43;;;;;;;16.48;3.55;;;5.00;94.10;;;;;;5040653;28;20087;-75
2023/11/25 02:22:10;;;;;;;17.20;3.50;;;5.00;93.80;;;;;;5047444;28;20116;-77
2023/11/25 02:24:37;;;;;;;13.23;3.10;;;5.10;93.50;;;;;;5059021;28;20033;-77
2023/11/25 02:27:04;;;;;;;11.18;2.65;;;5.10;93.10;;;;;;5046818;28;20443;-74
2023/11/25 02:29:35;;;;;;;13.10;2.95;;;5.20;93.00;;;;;;5042971;28;20375;-75
2023/11/25 02:32:03;;;;;;;13.25;2.63;;;5.30;92.80;;;;;;5038040;28;20213;-74
2023/11/25 02:34:29;;;;;;;14.68;3.33;;;5.40;92.60;;;;;;5045072;28;20079;-75
2023/11/25 02:36:55;;;;;;;11.20;2.85;;;5.60;91.30;;;;;;5038467;28;20037;-75
2023/11/25 02:39:22;;;;;;;16.25;2.47;;;5.80;90.70;;;;;;5039660;28;20046;-76
2023/11/25 02:41:49;;;;;;;10.07;2.47;;;5.90;90.70;;;;;;5042543;28;20116;-74
2023/11/25 02:44:16;;;;;;;12.70;2.28;;;5.90;90.80;;;;;;5045412;28;20507;-74
2023/11/25 02:46:49;;;;;;;15.75;2.63;;;5.90;91.00;;;;;;5041079;28;20040;-74
2023/11/25 02:49:15;;;;;;;10.45;2.58;;;5.90;91.30;;;;;;5037619;28;20056;-74
2023/11/25 02:51:51;;;;;;;13.52;2.67;;;5.80;91.30;;;;;;5034614;28;20053;-76
2023/11/25 02:54:19;;;;;;;12.52;2.20;;;5.70;91.60;;;;;;5036019;28;20536;-76
2023/11/25 02:56:45;;;;;;;14.07;2.33;;;5.60;91.80;;;;;;5041671;28;20041;-75
2023/11/25 02:59:12;;;;;;;12.32;2.45;;;5.50;92.00;;;;;;5041368;28;20036;-74
2023/11/25 03:01:47;;;;;;;12.27;2.58;;;5.50;92.20;;;;;;5034477;28;20108;-77
2023/11/25 03:04:16;;;;;;;11.25;2.83;;;5.40;92.30;;;;;;5042264;28;20029;-75
2023/11/25 03:06:43;;;;;;;12.70;2.70;;;5.30;92.50;;;;;;5037856;28;20201;-75
2023/11/25 03:09:13;;;;;;;9.70;2.38;;;5.20;92.60;;;;;;5042818;28;20052;-77
2023/11/25 03:11:39;;;;;;;11.32;2.50;;;5.10;92.70;;;;;;5041461;28;20448;-75
2023/11/25 03:14:05;;;;;;;11.07;2.40;;;5.00;92.90;;;;;;5042010;28;20479;-74
2023/11/25 03:16:34;;;;;;;12.10;2.58;;;5.00;93.00;;;;;;5038983;28;20037;-74
2023/11/25 03:19:00;;;;;;;10.02;3.15;;;4.90;93.20;;;;;;5041135;28;20037;-77
2023/11/25 03:21:26;;;;;;;10.98;2.90;;;4.90;93.30;;;;;;5035255;28;20253;-73
2023/11/25 03:23:52;;;;;;;12.02;2.80;;;4.90;93.50;;;;;;5039194;28;20373;-75
2023/11/25 03:26:17;;;;;;;12.50;2.88;;;4.90;93.60;;;;;;5037067;28;20108;-75
2023/11/25 03:28:44;;;;;;;9.82;2.40;;;4.90;93.60;;;;;;5041105;28;20033;-77
2023/11/25 03:31:10;;;;;;;9.20;2.70;;;4.90;93.60;;;;;;5041387;28;20076;-73
2023/11/25 03:33:36;;;;;;;18.60;2.90;;;4.90;93.60;;;;;;5039113;28;20064;-76
2023/11/25 03:36:03;;;;;;;13.10;3.65;;;4.90;93.60;;;;;;5040941;28;20504;-75
2023/11/25 03:38:29;;;;;;;11.60;2.70;;;4.90;93.70;;;;;;5037452;28;21830;-77
2023/11/25 03:40:55;;;;;;;11.75;2.90;;;4.90;93.60;;;;;;5038706;28;20041;-75
2023/11/25 03:43:24;;;;;;;12.38;3.03;;;4.90;93.60;;;;;;5036593;28;20669;-75
2023/11/25 03:45:50;;;;;;;15.23;2.97;;;4.90;93.70;;;;;;5033856;28;20029;-77
2023/11/25 03:48:16;;;;;;;16.17;3.10;;;4.80;93.80;;;;;;5035009;28;20037;-76
2023/11/25 03:50:42;;;;;;;12.65;2.65;;;4.80;93.80;;;;;;5032830;28;20039;-76
2023/11/25 03:53:08;;;;;;;10.70;2.67;;;4.70;93.80;;;;;;5035274;28;20036;-75
2023/11/25 03:55:34;;;;;;;12.27;2.78;;;4.70;94.00;;;;;;5034929;28;20045;-74
2023/11/25 03:58:01;;;;;;;9.95;2.65;;;4.60;94.00;;;;;;5035707;28;20037;-74
2023/11/25 04:00:27;;;;;;;9.70;2.20;;;4.60;94.00;;;;;;5046663;28;20151;-75
2023/11/25 04:02:53;;;;;;;14.55;2.80;;;4.60;94.20;;;;;;5042811;28;20028;-75
2023/11/25 04:05:19;;;;;;;13.05;3.05;;;4.60;94.30;;;;;;5040168;28;20056;-74
2023/11/25 04:07:45;;;;;;;12.25;2.58;;;4.60;94.20;;;;;;5039659;28;20461;-76
2023/11/25 04:10:12;;;;;;;14.80;3.35;;;4.70;94.30;;;;;;5043223;28;20037;-75
2023/11/25 04:12:48;;;;;;;12.77;3.28;;;4.70;94.50;;;;;;5038157;28;20033;-77
2023/11/25 04:15:20;;;;;;;16.52;3.30;;;4.70;94.50;;;;;;5035097;28;20383;-77
2023/11/25 04:17:46;;;;;;;15.40;3.00;;;4.80;94.60;;;;;;5038863;28;20755;-75
2023/11/25 04:20:17;;;;;;;11.35;3.20;;;4.90;94.70;;;;;;5036400;28;20052;-77
2023/11/25 04:22:47;;;;;;;11.07;3.15;;;4.80;94.60;;;;;;5036165;28;20037;-76
2023/11/25 04:25:14;;;;;;;15.52;3.20;;;4.80;94.60;;;;;;5043021;28;20477;-76
2023/11/25 04:27:47;;;;;;;12.25;2.67;;;4.70;94.70;;;;;;5042409;28;20752;-76
2023/11/25 04:30:13;;;;;;;16.30;3.70;;;4.60;94.80;;;;;;5038484;28;20057;-75
2023/11/25 04:32:40;;;;;;;13.23;2.63;;;4.60;94.90;;;;;;5036434;28;20147;-74
2023/11/25 04:35:07;;;;;;;10.82;3.10;;;4.50;95.00;;;;;;5045955;28;20120;-75
2023/11/25 04:37:33;;;;;;;11.82;2.67;;;4.40;95.00;;;;;;5036891;28;20029;-74
2023/11/25 04:39:59;;;;;;;10.52;2.67;;;4.40;95.10;;;;;;5038904;28;20044;-77
2023/11/25 04:42:25;;;;;;;15.52;3.50;;;4.40;95.20;;;;;;5043402;28;20461;-75
2023/11/25 04:44:51;;;;;;;14.48;3.45;;;4.30;95.20;;;;;;5044830;28;20037;-76
2023/11/25 04:47:16;;;;;;;9.55;2.70;;;4.30;95.30;;;;;;5037684;28;20139;-76
2023/11/25 04:49:42;;;;;;;13.55;2.78;;;4.30;95.40;;;;;;5042819;28;20533;-74
2023/11/25 04:52:08;;;;;;;9.45;2.65;;;4.30;95.30;;;;;;5040126;28;20029;-74
2023/11/25 04:54:34;;;;;;;11.20;2.70;;;4.30;95.30;;;;;;5038495;28;20092;-75
2023/11/25 04:57:01;;;;;;;13.45;3.30;;;4.30;95.30;;;;;;5044383;28;20120;-75
2023/11/25 04:59:29;;;;;;;17.13;3.15;;;4.40;95.30;;;;;;5039008;28;20388;-74
2023/11/25 05:01:54;;;;;;;14.15;3.13;;;4.50;95.40;;;;;;5039517;28;20048;-74
2023/11/25 05:04:20;;;;;;;8.95;2.70;;;4.60;95.60;;;;;;5035690;28;20038;-74
2023/11/25 05:06:46;;;;;;;14.10;2.63;;;4.60;95.70;;;;;;5034482;28;20029;-77
2023/11/25 05:09:13;;;;;;;14.05;3.92;;;4.80;96.10;;;;;;5038793;28;20594;-75
2023/11/25 05:11:40;;;;;;;19.75;4.50;;;5.00;96.50;;;;;;5036572;28;20017;-75
2023/11/25 05:14:06;;;;;;;15.63;3.35;;;5.10;96.80;;;;;;5041295;28;20022;-77
2023/11/25 05:16:31;;;;;;;14.88;2.92;;;5.10;97.10;;;;;;5038730;28;20040;-75
2023/11/25 05:18:57;;;;;;;13.60;2.92;;;5.30;97.10;;;;;;5035593;28;20048;-75
2023/11/25 05:21:23;;;;;;;15.65;2.92;;;5.40;97.10;;;;;;5032252;28;20040;-77
2023/11/25 05:23:49;;;;;;;16.27;3.50;;;5.50;97.10;;;;;;5039256;28;20369;-73
2023/11/25 05:26:15;;;;;;;9.43;2.92;;;5.50;97.00;;;;;;5037284;28;20037;-74
2023/11/25 05:28:41;;;;;;;13.82;2.55;;;5.50;97.00;;;;;;5039570;28;20883;-74
2023/11/25 05:31:07;;;;;;;13.95;3.03;;;5.60;97.00;;;;;;5039117;28;20112;-74
2023/11/25 05:33:33;;;;;;;14.50;2.75;;;5.60;97.00;;;;;;5033421;28;20377;-76
2023/11/25 05:35:59;;;;;;;13.57;3.95;;;5.60;96.90;;;;;;5037646;28;20176;-74
2023/11/25 05:38:27;;;;;;;12.38;2.30;;;5.60;96.90;;;;;;5035807;28;20047;-75
2023/11/25 05:40:53;;;;;;;12.57;3.20;;;5.60;96.90;;;;;;5036868;28;20029;-76
2023/11/25 05:43:19;;;;;;;13.98;2.83;;;5.70;96.80;;;;;;5040429;28;20462;-77
2023/11/25 05:45:46;;;;;;;12.60;3.13;;;5.70;96.70;;;;;;5037769;28;20045;-74
2023/11/25 05:48:12;;;;;;;12.50;2.60;;;5.80;96.70;;;;;;5041294;28;20037;-76
2023/11/25 05:50:38;;;;;;;8.68;2.60;;;5.70;96.50;;;;;;5035098;28;20044;-74
2023/11/25 05:53:04;;;;;;;19.58;2.88;;;5.60;96.50;;;;;;5035281;28;20102;-74
2023/11/25 05:55:30;;;;;;;8.68;2.50;;;5.60;96.40;;;;;;5036857;28;20453;-75
2023/11/25 05:57:56;;;;;;;13.35;3.45;;;5.60;96.30;;;;;;5033052;28;20033;-74
2023/11/25 06:00:22;;;;;;;14.32;3.50;;;5.60;96.30;;;;;;5039810;28;20573;-75
2023/11/25 06:02:48;;;;;;;10.90;2.80;;;5.60;96.20;;;;;;5034078;28;20025;-75
2023/11/25 06:05:14;;;;;;;11.00;2.70;;;5.60;96.20;;;;;;5039132;28;20176;-74
2023/11/25 06:07:40;;;;;;;9.20;2.53;;;5.60;96.20;;;;;;5036091;28;20455;-75
2023/11/25 06:10:07;;;;;;;9.38;2.03;;;5.60;95.90;;;;;;5039650;28;20128;-77
2023/11/25 06:12:32;;;;;;;11.32;2.17;;;5.30;95.30;;;;;;5039270;28;20037;-74
2023/11/25 06:14:59;;;;;;;8.65;2.17;;;5.20;95.20;;;;;;5037817;28;20032;-73
2023/11/25 06:17:24;;;;;;;5.35;1.60;;;5.10;95.30;;;;;;5039773;28;20485;-74
2023/11/25 06:19:53;;;;;;;5.47;1.80;;;5.10;95.50;;;;;;5036226;28;20029;-76
2023/11/25 06:22:22;;;;;;;5.93;1.77;;;5.20;95.50;;;;;;5037288;28;20052;-75
2023/11/25 06:24:48;;;;;;;6.50;1.83;;;5.20;95.60;;;;;;5044757;28;20040;-75
2023/11/25 06:27:14;;;;;;;9.30;3.00;;;5.10;95.60;;;;;;5059243;28;20029;-77
2023/11/25 06:29:40;;;;;;;8.10;2.20;;;5.20;95.90;;;;;;5060889;28;20024;-76
2023/11/25 06:32:06;;;;;;;6.90;2.50;;;5.30;96.20;;;;;;5047063;28;20501;-74
2023/11/25 06:34:32;;;;;;;9.23;2.05;;;5.30;96.40;;;;;;5035296;28;20071;-75
2023/11/25 06:36:58;;;;;;;9.88;4.35;;;5.40;96.70;;;;;;5039302;28;20112;-75
2023/11/25 06:39:25;;;;;;;9.25;3.28;;;5.50;96.70;;;;;;5038996;28;20127;-73
2023/11/25 06:41:53;;;;;;;10.95;3.17;;;5.50;96.70;;;;;;5039990;28;20287;-78
2023/11/25 06:44:19;;;;;;;15.60;3.90;;;5.60;96.80;;;;;;5036577;28;20117;-72
2023/11/25 06:46:46;;;;;;;12.35;2.92;;;5.70;96.80;;;;;;5022142;28;20117;-73
2023/11/25 06:49:15;;;;;;;10.77;2.75;;;5.70;96.70;;;;;;5021535;28;20025;-77
2023/11/25 06:51:41;;;;;;;13.82;3.65;;;5.70;96.60;;;;;;5012839;28;20398;-73
2023/11/25 06:54:08;;;;;;;10.55;2.53;;;5.70;96.50;;;;;;5018075;28;20029;-74
2023/11/25 06:56:34;;;;;;;11.85;2.45;;;5.70;96.60;;;;;;5020743;28;20034;-75
2023/11/25 06:59:00;;;;;;;8.63;2.92;;;5.70;96.50;;;;;;5023124;28;20095;-75
2023/11/25 07:01:26;;;;;;;10.20;2.63;;;5.70;96.60;;;;;;5020359;28;20466;-73
2023/11/25 07:03:52;;;;;;;11.25;2.75;;;5.70;96.60;;;;;;5042285;28;20056;-73
2023/11/25 07:06:18;;;;;;;9.38;2.17;;;5.70;96.80;;;;;;5030757;28;20045;-75
2023/11/25 07:08:47;;;;;;;9.75;2.67;;;5.60;96.50;;;;;;5038057;28;20338;-76
2023/11/25 07:11:13;;;;;;;7.82;1.90;;;5.60;96.30;;;;;;5037582;28;20053;-76
2023/11/25 07:13:42;;;;;;;9.98;2.45;;;5.60;96.20;;;;;;5036249;28;20370;-74
2023/11/25 07:16:11;;;;;;;9.70;2.13;;;5.60;96.20;;;;;;5040507;28;20044;-75
2023/11/25 07:18:42;;;;;;;8.98;2.33;;;5.50;96.20;;;;;;5038873;28;20043;-73
2023/11/25 07:21:11;;;;;;;12.30;2.42;;;5.60;96.20;;;;;;5032175;28;20056;-74
2023/11/25 07:23:40;;;;;;;7.03;2.20;;;5.60;96.10;;;;;;5036951;28;20033;-75
2023/11/25 07:26:06;;;;;;;7.45;3.03;;;5.60;96.10;;;;;;5029068;28;20508;-75
2023/11/25 07:28:35;;;;;;;5.72;2.25;;;5.60;96.10;;;;;;5024949;28;20321;-74
2023/11/25 07:31:02;;;;;;;9.30;2.28;;;5.60;96.20;;;;;;5017601;28;20125;-74
2023/11/25 07:33:28;;;;;;;8.82;1.80;;;5.60;96.20;;;;;;5021310;28;20041;-75
2023/11/25 07:35:54;;;;;;;7.28;2.05;;;5.60;96.20;;;;;;5021982;28;20033;-77
2023/11/25 07:38:19;;;;;;;6.40;1.80;;;5.60;96.20;;;;;;5019246;28;20045;-75
2023/11/25 07:40:45;;;;;;;6.25;2.13;;;5.60;96.20;;;;;;5018846;28;20038;-74
2023/11/25 07:43:13;;;;;;;8.43;1.90;;;5.70;96.20;;;;;;5021788;28;20038;-74
2023/11/25 07:45:39;;;;;;;7.80;2.47;;;5.70;96.30;;;;;;5021829;28;20103;-74
2023/11/25 07:48:04;;;;;;;7.85;2.10;;;5.70;96.30;;;;;;5022740;28;20470;-76
2023/11/25 07:50:30;;;;;;;10.52;3.42;;;5.80;96.30;;;;;;5022660;28;20515;-75
2023/11/25 07:52:56;;;;;;;13.65;3.58;;;5.80;96.50;;;;;;5020089;28;20520;-75
2023/11/25 07:55:21;;;;;;;21.13;4.45;;;5.80;96.70;;;;;;5016842;28;20038;-74
2023/11/25 07:57:47;;;;;;;20.17;4.35;;;6.00;97.10;;;;;;5030808;28;20071;-74
2023/11/25 08:00:17;;;;;;;18.50;4.40;;;6.10;97.20;;;;;;5038821;28;20041;-76
2023/11/25 08:02:44;;;;;;;23.15;4.88;;;6.20;97.10;;;;;;5039759;28;20548;-74
2023/11/25 08:05:11;;;;;;;20.20;5.80;;;6.30;96.90;;;;;;5030391;28;20057;-73
2023/11/25 08:07:37;;;;;;;29.95;5.65;;;6.30;96.80;;;;;;5014567;28;20033;-76
2023/11/25 08:10:04;;;;;;;16.48;4.38;;;6.40;96.80;;;;;;5017844;28;20046;-74
2023/11/25 08:12:30;;;;;;;8.55;2.17;;;6.20;96.40;;;;;;5013598;28;20111;-73
2023/11/25 08:14:56;;;;;;;8.07;2.42;;;6.10;95.70;;;;;;5019936;28;20479;-72
2023/11/25 08:17:22;;;;;;;9.38;2.03;;;6.00;95.00;;;;;;5018831;28;20329;-72
2023/11/25 08:19:48;;;;;;;7.90;2.50;;;5.90;94.90;;;;;;5022193;28;20052;-73
2023/11/25 08:22:14;;;;;;;5.78;1.90;;;5.90;95.00;;;;;;5038047;28;20073;-73
2023/11/25 08:24:40;;;;;;;6.63;2.00;;;5.90;95.20;;;;;;5043842;28;20035;-73
2023/11/25 08:27:05;;;;;;;8.10;3.00;;;6.00;95.30;;;;;;5038272;28;20025;-74
2023/11/25 08:29:31;;;;;;;9.27;3.00;;;6.00;95.40;;;;;;5039803;28;20444;-73
2023/11/25 08:31:56;;;;;;;15.13;3.60;;;6.10;95.60;;;;;;5029731;28;20029;-73
2023/11/25 08:34:22;;;;;;;13.18;3.83;;;6.10;95.80;;;;;;5037963;28;20021;-74
2023/11/25 08:36:54;;;;;;;15.70;4.70;;;6.20;96.10;;;;;;5036189;28;20103;-73
2023/11/25 08:39:26;;;;;;;20.20;4.82;;;6.30;96.20;;;;;;5041153;28;20049;-73
2023/11/25 08:41:58;;;;;;;22.50;4.72;;;6.30;96.30;;;;;;5039204;28;20986;-73
2023/11/25 08:44:23;;;;;;;20.83;4.93;;;6.40;96.30;;;;;;5035155;28;20060;-73
2023/11/25 08:46:50;;;;;;;22.55;5.13;;;6.40;96.30;;;;;;5033926;28;20068;-73
2023/11/25 08:49:18;;;;;;;18.95;5.78;;;6.50;96.20;;;;;;5037117;28;20024;-72
2023/11/25 08:51:47;;;;;;;19.23;4.78;;;6.50;96.20;;;;;;5040860;28;20045;-74
2023/11/25 08:54:18;;;;;;;19.15;4.55;;;6.50;96.10;;;;;;5044249;28;20021;-73
2023/11/25 08:56:45;;;;;;;18.90;4.35;;;6.60;95.90;;;;;;5037392;28;20048;-74
2023/11/25 08:59:14;;;;;;;20.67;5.13;;;6.60;95.80;;;;;;5035490;28;20136;-73
2023/11/25 09:01:42;;;;;;;17.48;3.75;;;6.60;95.40;;;;;;5035114;28;20549;-73
2023/11/25 09:04:08;;;;;;;19.60;4.10;;;6.50;95.30;;;;;;5036443;28;20025;-73
2023/11/25 09:06:39;;;;;;;16.67;5.03;;;6.60;95.30;;;;;;5036026;28;20049;-73
2023/11/25 09:09:08;;;;;;;14.40;4.07;;;6.50;95.30;;;;;;5034426;28;20084;-73
2023/11/25 09:11:35;;;;;;;20.45;5.13;;;6.60;95.50;;;;;;5036333;28;20529;-74
2023/11/25 09:14:03;;;;;;;15.25;4.70;;;6.60;95.50;;;;;;5039672;28;20048;-73
2023/11/25 09:16:29;;;;;;;17.75;4.80;;;6.60;95.40;;;;;;5032019;28;20041;-74
2023/11/25 09:18:55;;;;;;;13.38;4.00;;;6.60;95.40;;;;;;5037258;28;20027;-73
2023/11/25 09:21:21;;;;;;;16.17;4.63;;;6.60;95.50;;;;;;5034407;28;20128;-73
2023/11/25 09:23:46;;;;;;;22.45;5.50;;;6.70;95.30;;;;;;5039437;28;20514;-75
2023/11/25 09:26:12;;;;;;;17.25;4.43;;;6.60;95.30;;;;;;5038780;28;20347;-73
2023/11/25 09:28:38;;;;;;;17.02;3.95;;;6.70;95.10;;;;;;5031170;28;20098;-74
2023/11/25 09:31:03;;;;;;;21.75;5.03;;;6.70;94.90;;;;;;5030030;28;20639;-73
2023/11/25 09:33:30;;;;;;;18.27;5.10;;;6.70;94.60;;;;;;5034437;28;20037;-73
2023/11/25 09:35:56;;;;;;;21.13;3.95;;;6.80;94.00;;;;;;5029985;28;20353;-74
2023/11/25 09:38:21;;;;;;;15.82;4.15;;;6.70;93.80;;;;;;5034903;28;20049;-73
2023/11/25 09:40:47;;;;;;;23.75;4.57;;;6.80;93.70;;;;;;5032035;28;20436;-73
2023/11/25 09:43:14;;;;;;;16.38;4.07;;;6.80;93.30;;;;;;5031631;28;20033;-73
2023/11/25 09:45:41;;;;;;;15.70;4.28;;;6.90;93.30;;;;;;5037411;28;20262;-73
2023/11/25 09:48:07;;;;;;;18.50;3.60;;;6.90;93.00;;;;;;5037795;28;20368;-73
2023/11/25 09:50:34;;;;;;;20.75;4.57;;;7.10;92.80;;;;;;5036067;28;20037;-74
2023/11/25 09:53:09;;;;;;;14.07;3.55;;;7.10;92.70;;;;;;5035888;28;20041;-74
2023/11/25 09:55:37;;;;;;;17.13;4.07;;;7.00;92.70;;;;;;5038650;28;20033;-73
2023/11/25 09:58:09;;;;;;;15.75;4.10;;;7.00;93.10;;;;;;5036064;28;20025;-75
2023/11/25 10:00:37;;;;;;;17.58;4.43;;;7.00;93.60;;;;;;5043556;28;20048;-73
2023/11/25 10:03:10;;;;;;;17.65;4.00;;;7.00;93.70;;;;;;5041699;28;20355;-74
2023/11/25 10:05:36;;;;;;;16.67;3.60;;;6.90;93.90;;;;;;5037141;28;20029;-73
2023/11/25 10:08:02;;;;;;;15.30;4.20;;;7.00;94.00;;;;;;5038842;28;20033;-74
2023/11/25 10:10:29;;;;;;;23.52;4.28;;;6.90;93.70;;;;;;5037787;28;20035;-73
2023/11/25 10:12:55;;;;;;;15.80;3.53;;;7.10;93.80;;;;;;5037693;28;20447;-74
2023/11/25 10:15:24;;;;;;;13.90;4.13;;;7.10;93.70;;;;;;5040559;28;20067;-74
2023/11/25 10:17:50;;;;;;;14.20;3.65;;;7.10;93.10;;;;;;5044670;28;20044;-74
2023/11/25 10:20:25;;;;;;;13.15;3.47;;;7.10;92.90;;;;;;5042111;28;20116;-73
2023/11/25 10:22:56;;;;;;;17.48;3.80;;;7.20;92.50;;;;;;5043389;28;20503;-73
2023/11/25 10:25:22;;;;;;;16.00;3.40;;;7.20;92.70;;;;;;5038634;28;20071;-73
2023/11/25 10:27:51;;;;;;;15.88;3.70;;;7.30;92.80;;;;;;5040495;28;20726;-73
2023/11/25 10:30:16;;;;;;;16.45;3.45;;;7.40;92.90;;;;;;5042395;28;20037;-73
2023/11/25 10:32:42;;;;;;;18.50;4.93;;;7.50;92.80;;;;;;5038384;28;20056;-76
2023/11/25 10:35:12;;;;;;;17.15;4.35;;;7.60;92.90;;;;;;5041055;28;20040;-74
2023/11/25 10:37:39;;;;;;;15.65;3.88;;;7.60;92.90;;;;;;5040487;28;20055;-75
2023/11/25 10:40:10;;;;;;;15.15;3.78;;;7.50;92.40;;;;;;5040368;28;20064;-76
2023/11/25 10:42:45;;;;;;;18.42;3.53;;;7.50;92.30;;;;;;5040964;28;20052;-74
2023/11/25 10:45:15;;;;;;;16.73;3.60;;;7.50;92.30;;;;;;5040672;28;20041;-73
2023/11/25 10:47:42;;;;;;;16.15;3.72;;;7.60;92.30;;;;;;5042122;28;20037;-74
2023/11/25 10:50:08;;;;;;;14.02;3.22;;;7.60;92.20;;;;;;5041928;28;20045;-74
2023/11/25 10:52:38;;;;;;;17.40;4.05;;;7.70;92.20;;;;;;5041729;28;20087;-74
2023/11/25 10:55:06;;;;;;;13.63;3.30;;;7.60;91.70;;;;;;5040185;28;20787;-74
2023/11/25 10:57:32;;;;;;;17.33;3.95;;;7.50;91.90;;;;;;5031862;28;20137;-74
2023/11/25 10:59:59;;;;;;;16.17;3.45;;;7.40;92.10;;;;;;5043129;28;20049;-74
2023/11/25 11:02:29;;;;;;;16.50;3.58;;;7.40;92.20;;;;;;5040114;28;20116;-76
2023/11/25 11:05:02;;;;;;;10.52;3.20;;;7.40;91.90;;;;;;5045020;28;20057;-75
2023/11/25 11:07:30;;;;;;;16.38;3.40;;;7.50;91.80;;;;;;5043673;28;20033;-75
2023/11/25 11:10:01;;;;;;;17.85;2.90;;;7.50;92.00;;;;;;5039931;28;20131;-75
2023/11/25 11:12:52;;;;;;;13.57;2.75;;;7.60;91.80;;;;;;5040984;28;20389;-75
2023/11/25 11:15:20;;;;;;;16.88;3.55;;;7.60;91.60;;;;;;5034141;28;20029;-75
2023/11/25 11:18:21;;;;;;;14.85;3.75;;;7.60;91.70;;;;;;5027644;28;20029;-74
2023/11/25 11:20:49;;;;;;;17.20;4.45;;;7.70;91.50;;;;;;5037511;28;20068;-74
2023/11/25 11:23:16;;;;;;;12.63;3.42;;;7.70;91.60;;;;;;5036878;28;20492;-76
2023/11/25 11:25:48;;;;;;;15.07;3.42;;;7.80;91.50;;;;;;5043443;28;20068;-75
2023/11/25 11:28:28;;;;;;;14.68;3.47;;;7.90;91.50;;;;;;5058191;28;20036;-74
2023/11/25 11:30:54;;;;;;;13.55;3.03;;;7.90;91.20;;;;;;5055713;28;20101;-75
2023/11/25 11:33:20;;;;;;;16.05;3.20;;;7.90;91.00;;;;;;5053303;28;20049;-74
2023/11/25 11:35:49;;;;;;;13.52;3.40;;;7.90;90.80;;;;;;5039372;28;20404;-75
2023/11/25 11:38:32;;;;;;;18.75;3.47;;;7.90;90.20;;;;;;5035935;28;20080;-74
2023/11/25 11:41:20;;;;;;;15.82;4.13;;;7.90;90.30;;;;;;5041086;28;20059;-74
2023/11/25 11:44:10;;;;;;;12.80;3.30;;;8.00;90.40;;;;;;5033579;28;20032;-74
2023/11/25 11:46:42;;;;;;;13.65;3.63;;;8.00;90.40;;;;;;5037385;28;20033;-74
2023/11/25 11:49:10;;;;;;;17.38;3.45;;;7.90;90.00;;;;;;5031539;28;20368;-74
2023/11/25 11:51:36;;;;;;;12.23;3.03;;;7.90;90.20;;;;;;5034451;28;20041;-74
2023/11/25 11:54:19;;;;;;;13.05;3.17;;;7.90;90.70;;;;;;5039616;28;20029;-75
2023/11/25 11:57:21;;;;;;;13.98;3.60;;;7.80;90.60;;;;;;5039225;28;20037;-74
2023/11/25 11:59:55;;;;;;;12.45;3.33;;;7.80;90.90;;;;;;4995777;28;20037;-74
2023/11/25 12:02:22;;;;;;;17.40;3.58;;;7.80;91.10;;;;;;5029073;28;20039;-74
2023/11/25 12:04:47;;;;;;;15.40;3.30;;;7.70;91.30;;;;;;5040243;28;20409;-74
2023/11/25 12:07:13;;;;;;;14.15;3.65;;;7.70;91.60;;;;;;5042838;28;20037;-74
2023/11/25 12:09:39;;;;;;;13.30;3.55;;;7.70;91.60;;;;;;5039288;28;20340;-74
2023/11/25 12:12:06;;;;;;;13.98;3.38;;;7.70;91.60;;;;;;5040783;28;20033;-76
2023/11/25 12:14:31;;;;;;;16.35;3.67;;;7.70;91.50;;;;;;5036596;28;20458;-74
2023/11/25 12:16:57;;;;;;;11.63;3.20;;;7.70;91.60;;;;;;5037573;28;20064;-76
2023/11/25 12:19:24;;;;;;;17.50;3.53;;;7.70;92.10;;;;;;5039563;28;20474;-74
2023/11/25 12:21:50;;;;;;;15.13;3.67;;;7.70;92.20;;;;;;5035020;28;20039;-74
2023/11/25 12:24:17;;;;;;;16.27;3.50;;;7.70;92.20;;;;;;5038968;28;20017;-74
2023/11/25 12:26:49;;;;;;;17.35;3.67;;;7.80;92.50;;;;;;5038975;28;20489;-75
2023/11/25 12:29:16;;;;;;;23.17;4.60;;;7.60;92.50;;;;;;5038008;28;20527;-74
2023/11/25 12:31:42;;;;;;;17.73;4.30;;;7.60;93.00;;;;;;5037586;28;20565;-75
2023/11/25 12:34:08;;;;;;;13.45;3.70;;;7.50;93.30;;;;;;5039955;28;20036;-75
2023/11/25 12:36:35;;;;;;;16.48;4.18;;;7.50;93.50;;;;;;5037374;28;20049;-74
2023/11/25 12:39:02;;;;;;;11.68;3.03;;;7.50;93.50;;;;;;5035207;28;20067;-73
2023/11/25 12:41:28;;;;;;;17.58;2.80;;;7.50;93.20;;;;;;5040002;28;20064;-75
2023/11/25 12:44:03;;;;;;;16.10;4.63;;;7.50;93.10;;;;;;5036175;28;20420;-75
2023/11/25 12:46:29;;;;;;;16.70;3.90;;;7.60;93.20;;;;;;5042954;28;20037;-75
2023/11/25 12:48:57;;;;;;;14.48;4.75;;;7.60;93.40;;;;;;5037028;28;20035;-75